Terminal Aerodrome Forecast
Issued by NWS

Home | Current Version | Previous Version | Text Only | Print | Product List | Glossary On
Versions: 1 2 3 4 5 6 7 8 9 10 11 12 13 14 15 16 17 18 19 20 21 22 23 24 25 26 27 28 29 30 31 32
000
FTPA31 PHFO 261100
TAFLNY
TAF
PHNY 261120Z 2612/2712 09005KT 5SM BR FEW012 SCT040
     FM261400 12005KT P6SM VCSH SCT012 BKN035
     FM262000 20007KT P6SM VCSH BKN017 BKN035
     FM270300 02010KT P6SM VCSH SCT017 BKN035
      AMD NOT SKED=

USA.gov is the U.S. government's official web portal to all federal, state and local government web resources and services.